sensor_id;sensor_type;location;lat;lon;timestamp;temperature;humidity
9125;DHT22;4597;48.730;9.114;2023-02-11T00:00:51;-1.50;99.90
9125;DHT22;4597;48.730;9.114;2023-02-11T00:03:16;-1.50;99.90
9125;DHT22;4597;48.730;9.114;2023-02-11T00:05:42;-1.50;99.90
9125;DHT22;4597;48.730;9.114;2023-02-11T00:08:07;-1.50;99.90
9125;DHT22;4597;48.730;9.114;2023-02-11T00:10:32;-1.50;99.90
9125;DHT22;4597;48.730;9.114;2023-02-11T00:12:58;-1.50;99.90
9125;DHT22;4597;48.730;9.114;2023-02-11T00:15:24;-1.50;99.90
9125;DHT22;4597;48.730;9.114;2023-02-11T00:17:49;-1.50;99.90
9125;DHT22;4597;48.730;9.114;2023-02-11T00:20:15;-1.50;99.90
9125;DHT22;4597;48.730;9.114;2023-02-11T00:22:40;-1.50;99.90
9125;DHT22;4597;48.730;9.114;2023-02-11T00:25:06;-1.50;99.90
9125;DHT22;4597;48.730;9.114;2023-02-11T00:27:32;-1.50;99.90
9125;DHT22;4597;48.730;9.114;2023-02-11T00:29:57;-1.60;99.90
9125;DHT22;4597;48.730;9.114;2023-02-11T00:32:25;-1.60;99.90
9125;DHT22;4597;48.730;9.114;2023-02-11T00:34:53;-1.60;99.90
9125;DHT22;4597;48.730;9.114;2023-02-11T00:37:20;-1.60;99.90
9125;DHT22;4597;48.730;9.114;2023-02-11T00:39:46;-1.70;99.90
9125;DHT22;4597;48.730;9.114;2023-02-11T00:42:13;-1.70;99.90
9125;DHT22;4597;48.730;9.114;2023-02-11T00:44:39;-1.70;99.90
9125;DHT22;4597;48.730;9.114;2023-02-11T00:47:04;-1.70;99.90
9125;DHT22;4597;48.730;9.114;2023-02-11T00:49:30;-1.70;99.90
9125;DHT22;4597;48.730;9.114;2023-02-11T00:51:55;-1.70;99.90
9125;DHT22;4597;48.730;9.114;2023-02-11T00:54:21;-1.70;99.90
9125;DHT22;4597;48.730;9.114;2023-02-11T00:56:46;-1.70;99.90
9125;DHT22;4597;48.730;9.114;2023-02-11T00:59:12;-1.60;99.90
9125;DHT22;4597;48.730;9.114;2023-02-11T01:01:37;-1.60;99.90
9125;DHT22;4597;48.730;9.114;2023-02-11T01:04:03;-1.60;99.90
9125;DHT22;4597;48.730;9.114;2023-02-11T01:06:28;-1.60;99.90
9125;DHT22;4597;48.730;9.114;2023-02-11T01:08:54;-1.60;99.90
9125;DHT22;4597;48.730;9.114;2023-02-11T01:11:20;-1.60;99.90
9125;DHT22;4597;48.730;9.114;2023-02-11T01:13:47;-1.60;99.90
9125;DHT22;4597;48.730;9.114;2023-02-11T01:16:13;-1.60;99.90
9125;DHT22;4597;48.730;9.114;2023-02-11T01:18:39;-1.60;99.90
9125;DHT22;4597;48.730;9.114;2023-02-11T01:21:06;-1.60;99.90
9125;DHT22;4597;48.730;9.114;2023-02-11T01:23:32;-1.60;99.90
9125;DHT22;4597;48.730;9.114;2023-02-11T01:25:57;-1.70;99.90
9125;DHT22;4597;48.730;9.114;2023-02-11T01:28:25;-1.70;99.90
9125;DHT22;4597;48.730;9.114;2023-02-11T01:30:51;-1.70;99.90
9125;DHT22;4597;48.730;9.114;2023-02-11T01:33:17;-1.70;99.90
9125;DHT22;4597;48.730;9.114;2023-02-11T01:35:44;-1.80;99.90
9125;DHT22;4597;48.730;9.114;2023-02-11T01:38:24;-1.80;99.90
9125;DHT22;4597;48.730;9.114;2023-02-11T01:40:52;-1.90;99.90
9125;DHT22;4597;48.730;9.114;2023-02-11T01:43:19;-1.90;99.90
9125;DHT22;4597;48.730;9.114;2023-02-11T01:48:17;-1.90;99.90
9125;DHT22;4597;48.730;9.114;2023-02-11T01:50:47;-1.80;99.90
9125;DHT22;4597;48.730;9.114;2023-02-11T01:53:14;-1.90;99.90
9125;DHT22;4597;48.730;9.114;2023-02-11T01:55:59;-1.80;99.90
9125;DHT22;4597;48.730;9.114;2023-02-11T01:58:44;-1.90;99.90
9125;DHT22;4597;48.730;9.114;2023-02-11T02:01:14;-1.80;99.90
9125;DHT22;4597;48.730;9.114;2023-02-11T02:03:43;-1.80;99.90
9125;DHT22;4597;48.730;9.114;2023-02-11T02:06:34;-1.70;99.90
9125;DHT22;4597;48.730;9.114;2023-02-11T02:09:13;-1.70;99.90
9125;DHT22;4597;48.730;9.114;2023-02-11T02:11:40;-1.80;99.90
9125;DHT22;4597;48.730;9.114;2023-02-11T02:14:06;-1.80;99.90
9125;DHT22;4597;48.730;9.114;2023-02-11T02:16:35;-1.80;99.90
9125;DHT22;4597;48.730;9.114;2023-02-11T02:19:38;-1.80;99.90
9125;DHT22;4597;48.730;9.114;2023-02-11T02:27:48;-1.80;99.90
9125;DHT22;4597;48.730;9.114;2023-02-11T02:30:29;-1.90;99.90
9125;DHT22;4597;48.730;9.114;2023-02-11T02:36:33;-2.00;99.90
9125;DHT22;4597;48.730;9.114;2023-02-11T02:39:08;-2.00;99.90
9125;DHT22;4597;48.730;9.114;2023-02-11T02:41:36;-2.00;99.90
9125;DHT22;4597;48.730;9.114;2023-02-11T02:44:02;-2.00;99.90
9125;DHT22;4597;48.730;9.114;2023-02-11T02:46:30;-2.00;99.90
9125;DHT22;4597;48.730;9.114;2023-02-11T02:48:57;-2.00;99.90
9125;DHT22;4597;48.730;9.114;2023-02-11T02:54:56;-1.90;99.90
9125;DHT22;4597;48.730;9.114;2023-02-11T03:05:53;-1.90;99.90
9125;DHT22;4597;48.730;9.114;2023-02-11T03:10:53;-1.90;99.90
9125;DHT22;4597;48.730;9.114;2023-02-11T03:13:23;-1.80;99.90
9125;DHT22;4597;48.730;9.114;2023-02-11T03:15:54;-1.80;99.90
9125;DHT22;4597;48.730;9.114;2023-02-11T03:18:23;-1.80;99.90
9125;DHT22;4597;48.730;9.114;2023-02-11T03:20:51;-1.90;99.90
9125;DHT22;4597;48.730;9.114;2023-02-11T03:23:35;-1.90;99.90
9125;DHT22;4597;48.730;9.114;2023-02-11T03:26:16;-1.90;99.90
9125;DHT22;4597;48.730;9.114;2023-02-11T03:31:45;-2.10;99.90
9125;DHT22;4597;48.730;9.114;2023-02-11T03:34:29;-2.00;99.90
9125;DHT22;4597;48.730;9.114;2023-02-11T03:37:01;-2.00;99.90
9125;DHT22;4597;48.730;9.114;2023-02-11T03:39:35;-2.00;99.90
9125;DHT22;4597;48.730;9.114;2023-02-11T03:42:02;-1.90;99.90
9125;DHT22;4597;48.730;9.114;2023-02-11T03:44:33;-1.90;99.90
9125;DHT22;4597;48.730;9.114;2023-02-11T03:47:02;-1.80;99.90
9125;DHT22;4597;48.730;9.114;2023-02-11T03:49:31;-1.70;99.90
9125;DHT22;4597;48.730;9.114;2023-02-11T03:52:00;-1.60;99.90
9125;DHT22;4597;48.730;9.114;2023-02-11T03:54:29;-1.50;99.90
9125;DHT22;4597;48.730;9.114;2023-02-11T03:56:57;-1.50;99.90
9125;DHT22;4597;48.730;9.114;2023-02-11T03:59:24;-1.40;99.90
9125;DHT22;4597;48.730;9.114;2023-02-11T04:01:49;-1.30;99.90
9125;DHT22;4597;48.730;9.114;2023-02-11T04:04:15;-1.20;99.90
9125;DHT22;4597;48.730;9.114;2023-02-11T04:06:40;-1.20;99.90
9125;DHT22;4597;48.730;9.114;2023-02-11T04:09:06;-1.10;99.90
9125;DHT22;4597;48.730;9.114;2023-02-11T04:11:31;-1.20;99.90
9125;DHT22;4597;48.730;9.114;2023-02-11T04:13:57;-1.10;99.90
9125;DHT22;4597;48.730;9.114;2023-02-11T04:16:23;-1.10;99.90
9125;DHT22;4597;48.730;9.114;2023-02-11T04:18:48;-1.10;99.90
9125;DHT22;4597;48.730;9.114;2023-02-11T04:21:14;-1.10;99.90
9125;DHT22;4597;48.730;9.114;2023-02-11T04:23:39;-1.10;99.90
9125;DHT22;4597;48.730;9.114;2023-02-11T04:26:05;-1.10;99.90
9125;DHT22;4597;48.730;9.114;2023-02-11T04:28:31;-1.10;99.90
9125;DHT22;4597;48.730;9.114;2023-02-11T04:30:57;-1.10;99.90
9125;DHT22;4597;48.730;9.114;2023-02-11T04:33:23;-1.10;99.90
9125;DHT22;4597;48.730;9.114;2023-02-11T04:35:48;-1.00;99.90
9125;DHT22;4597;48.730;9.114;2023-02-11T04:38:14;-1.00;99.90
9125;DHT22;4597;48.730;9.114;2023-02-11T04:40:40;-1.10;99.90
9125;DHT22;4597;48.730;9.114;2023-02-11T04:43:06;-1.10;99.90
9125;DHT22;4597;48.730;9.114;2023-02-11T04:45:32;-1.10;99.90
9125;DHT22;4597;48.730;9.114;2023-02-11T04:47:58;-1.20;99.90
9125;DHT22;4597;48.730;9.114;2023-02-11T04:50:23;-1.20;99.90
9125;DHT22;4597;48.730;9.114;2023-02-11T04:52:49;-1.20;99.90
9125;DHT22;4597;48.730;9.114;2023-02-11T04:55:15;-1.10;99.90
9125;DHT22;4597;48.730;9.114;2023-02-11T04:57:40;-1.20;99.90
9125;DHT22;4597;48.730;9.114;2023-02-11T05:00:06;-1.10;99.90
9125;DHT22;4597;48.730;9.114;2023-02-11T05:02:32;-1.10;99.90
9125;DHT22;4597;48.730;9.114;2023-02-11T05:04:58;-1.00;99.90
9125;DHT22;4597;48.730;9.114;2023-02-11T05:07:23;-1.00;99.90
9125;DHT22;4597;48.730;9.114;2023-02-11T05:09:49;-0.90;99.90
9125;DHT22;4597;48.730;9.114;2023-02-11T05:12:14;-0.90;99.90
9125;DHT22;4597;48.730;9.114;2023-02-11T05:14:40;-0.90;99.90
9125;DHT22;4597;48.730;9.114;2023-02-11T05:17:05;-0.90;99.90
9125;DHT22;4597;48.730;9.114;2023-02-11T05:19:31;-0.90;99.90
9125;DHT22;4597;48.730;9.114;2023-02-11T05:21:57;-0.80;99.90
9125;DHT22;4597;48.730;9.114;2023-02-11T05:24:22;-0.80;99.90
9125;DHT22;4597;48.730;9.114;2023-02-11T05:26:48;-0.80;99.90
9125;DHT22;4597;48.730;9.114;2023-02-11T05:29:14;-0.80;99.90
9125;DHT22;4597;48.730;9.114;2023-02-11T05:31:39;-0.80;99.90
9125;DHT22;4597;48.730;9.114;2023-02-11T05:34:05;-0.80;99.90
9125;DHT22;4597;48.730;9.114;2023-02-11T05:36:30;-0.80;99.90
9125;DHT22;4597;48.730;9.114;2023-02-11T05:38:56;-0.80;99.90
9125;DHT22;4597;48.730;9.114;2023-02-11T05:41:21;-0.70;99.90
9125;DHT22;4597;48.730;9.114;2023-02-11T05:43:48;-0.70;99.90
9125;DHT22;4597;48.730;9.114;2023-02-11T05:46:17;-0.70;99.90
9125;DHT22;4597;48.730;9.114;2023-02-11T05:48:42;-0.70;99.90
9125;DHT22;4597;48.730;9.114;2023-02-11T05:51:08;-0.70;99.90
9125;DHT22;4597;48.730;9.114;2023-02-11T05:53:33;-0.60;99.90
9125;DHT22;4597;48.730;9.114;2023-02-11T05:55:59;-0.60;99.90
9125;DHT22;4597;48.730;9.114;2023-02-11T05:58:25;-0.60;99.90
9125;DHT22;4597;48.730;9.114;2023-02-11T06:00:50;-0.60;99.90
9125;DHT22;4597;48.730;9.114;2023-02-11T06:03:16;-0.50;99.90
9125;DHT22;4597;48.730;9.114;2023-02-11T06:05:42;-0.50;99.90
9125;DHT22;4597;48.730;9.114;2023-02-11T06:08:08;-0.50;99.90
9125;DHT22;4597;48.730;9.114;2023-02-11T06:10:33;-0.40;99.90
9125;DHT22;4597;48.730;9.114;2023-02-11T06:13:00;-0.40;99.90
9125;DHT22;4597;48.730;9.114;2023-02-11T06:15:26;-0.30;99.90
9125;DHT22;4597;48.730;9.114;2023-02-11T06:17:52;-0.20;99.90
9125;DHT22;4597;48.730;9.114;2023-02-11T06:20:17;-0.20;99.90
9125;DHT22;4597;48.730;9.114;2023-02-11T06:22:43;-0.20;99.90
9125;DHT22;4597;48.730;9.114;2023-02-11T06:25:09;-0.20;99.90
9125;DHT22;4597;48.730;9.114;2023-02-11T06:27:35;-0.20;99.90
9125;DHT22;4597;48.730;9.114;2023-02-11T06:30:01;-0.20;99.90
9125;DHT22;4597;48.730;9.114;2023-02-11T06:32:27;-0.30;99.90
9125;DHT22;4597;48.730;9.114;2023-02-11T06:34:53;-0.30;99.90
9125;DHT22;4597;48.730;9.114;2023-02-11T06:37:18;-0.30;99.90
9125;DHT22;4597;48.730;9.114;2023-02-11T06:39:44;-0.30;99.90
9125;DHT22;4597;48.730;9.114;2023-02-11T06:42:09;-0.30;99.90
9125;DHT22;4597;48.730;9.114;2023-02-11T06:44:35;-0.30;99.90
9125;DHT22;4597;48.730;9.114;2023-02-11T06:47:01;-0.30;99.90
9125;DHT22;4597;48.730;9.114;2023-02-11T06:49:26;-0.30;99.90
9125;DHT22;4597;48.730;9.114;2023-02-11T06:51:52;-0.20;99.90
9125;DHT22;4597;48.730;9.114;2023-02-11T06:54:17;-0.20;99.90
9125;DHT22;4597;48.730;9.114;2023-02-11T06:56:43;-0.20;99.90
9125;DHT22;4597;48.730;9.114;2023-02-11T06:59:15;-0.20;99.90
9125;DHT22;4597;48.730;9.114;2023-02-11T07:01:41;-0.20;99.90
9125;DHT22;4597;48.730;9.114;2023-02-11T07:04:07;-0.10;99.90
9125;DHT22;4597;48.730;9.114;2023-02-11T07:06:32;-0.10;99.90
9125;DHT22;4597;48.730;9.114;2023-02-11T07:08:58;-0.10;99.90
9125;DHT22;4597;48.730;9.114;2023-02-11T07:11:26;0.00;99.90
9125;DHT22;4597;48.730;9.114;2023-02-11T07:13:56;-0.10;99.90
9125;DHT22;4597;48.730;9.114;2023-02-11T07:16:22;-0.10;99.90
9125;DHT22;4597;48.730;9.114;2023-02-11T07:18:47;0.00;99.90
9125;DHT22;4597;48.730;9.114;2023-02-11T07:21:16;0.00;99.90
9125;DHT22;4597;48.730;9.114;2023-02-11T07:23:42;0.00;99.90
9125;DHT22;4597;48.730;9.114;2023-02-11T07:26:11;0.10;99.90
9125;DHT22;4597;48.730;9.114;2023-02-11T07:28:38;0.10;99.90
9125;DHT22;4597;48.730;9.114;2023-02-11T07:31:13;0.10;99.90
9125;DHT22;4597;48.730;9.114;2023-02-11T07:33:39;0.20;99.90
9125;DHT22;4597;48.730;9.114;2023-02-11T07:36:06;0.20;99.90
9125;DHT22;4597;48.730;9.114;2023-02-11T07:38:33;0.30;99.90
9125;DHT22;4597;48.730;9.114;2023-02-11T07:41:00;0.30;99.90
9125;DHT22;4597;48.730;9.114;2023-02-11T07:43:26;0.40;99.90
9125;DHT22;4597;48.730;9.114;2023-02-11T07:45:51;0.50;99.90
9125;DHT22;4597;48.730;9.114;2023-02-11T07:48:17;0.50;99.90
9125;DHT22;4597;48.730;9.114;2023-02-11T07:50:42;0.60;99.90
9125;DHT22;4597;48.730;9.114;2023-02-11T07:53:08;0.70;99.90
9125;DHT22;4597;48.730;9.114;2023-02-11T07:55:33;0.70;99.90
9125;DHT22;4597;48.730;9.114;2023-02-11T07:57:59;0.70;99.90
9125;DHT22;4597;48.730;9.114;2023-02-11T08:00:24;0.80;99.90
9125;DHT22;4597;48.730;9.114;2023-02-11T08:02:50;0.80;99.90
9125;DHT22;4597;48.730;9.114;2023-02-11T08:05:15;0.90;99.90
9125;DHT22;4597;48.730;9.114;2023-02-11T08:07:41;0.90;99.90
9125;DHT22;4597;48.730;9.114;2023-02-11T08:10:06;1.00;99.90
9125;DHT22;4597;48.730;9.114;2023-02-11T08:12:32;1.10;99.90
9125;DHT22;4597;48.730;9.114;2023-02-11T08:14:57;1.10;99.90
9125;DHT22;4597;48.730;9.114;2023-02-11T08:17:23;1.20;99.90
9125;DHT22;4597;48.730;9.114;2023-02-11T08:19:48;1.30;99.90
9125;DHT22;4597;48.730;9.114;2023-02-11T08:22:14;1.40;99.90
9125;DHT22;4597;48.730;9.114;2023-02-11T08:24:39;1.50;99.90
9125;DHT22;4597;48.730;9.114;2023-02-11T08:27:05;1.60;99.90
9125;DHT22;4597;48.730;9.114;2023-02-11T08:29:30;1.60;99.90
9125;DHT22;4597;48.730;9.114;2023-02-11T08:31:56;1.60;99.90
9125;DHT22;4597;48.730;9.114;2023-02-11T08:34:21;1.70;99.90
9125;DHT22;4597;48.730;9.114;2023-02-11T08:36:47;1.80;99.90
9125;DHT22;4597;48.730;9.114;2023-02-11T08:39:18;1.90;99.90
9125;DHT22;4597;48.730;9.114;2023-02-11T08:41:45;2.00;99.90
9125;DHT22;4597;48.730;9.114;2023-02-11T08:44:11;2.20;99.90
9125;DHT22;4597;48.730;9.114;2023-02-11T08:46:37;2.30;99.90
9125;DHT22;4597;48.730;9.114;2023-02-11T08:49:02;2.40;99.90
9125;DHT22;4597;48.730;9.114;2023-02-11T08:51:28;2.60;99.90
9125;DHT22;4597;48.730;9.114;2023-02-11T08:53:55;2.70;99.90
9125;DHT22;4597;48.730;9.114;2023-02-11T08:56:22;2.70;99.90
9125;DHT22;4597;48.730;9.114;2023-02-11T08:58:48;2.80;99.90
9125;DHT22;4597;48.730;9.114;2023-02-11T09:01:16;2.80;99.90
9125;DHT22;4597;48.730;9.114;2023-02-11T09:03:42;2.80;99.90
9125;DHT22;4597;48.730;9.114;2023-02-11T09:06:09;2.80;99.90
9125;DHT22;4597;48.730;9.114;2023-02-11T09:08:37;2.80;99.90
9125;DHT22;4597;48.730;9.114;2023-02-11T09:11:03;2.80;99.90
9125;DHT22;4597;48.730;9.114;2023-02-11T09:13:30;2.80;99.90
9125;DHT22;4597;48.730;9.114;2023-02-11T09:15:57;2.70;99.90
9125;DHT22;4597;48.730;9.114;2023-02-11T09:18:22;2.70;99.90
9125;DHT22;4597;48.730;9.114;2023-02-11T09:20:48;2.60;99.90
9125;DHT22;4597;48.730;9.114;2023-02-11T09:23:13;2.70;99.90
9125;DHT22;4597;48.730;9.114;2023-02-11T09:25:39;2.70;99.90
9125;DHT22;4597;48.730;9.114;2023-02-11T09:28:06;2.70;99.90
9125;DHT22;4597;48.730;9.114;2023-02-11T09:30:32;2.70;99.90
9125;DHT22;4597;48.730;9.114;2023-02-11T09:32:57;2.80;99.90
9125;DHT22;4597;48.730;9.114;2023-02-11T09:35:23;2.90;99.90
9125;DHT22;4597;48.730;9.114;2023-02-11T09:37:49;3.00;99.90
9125;DHT22;4597;48.730;9.114;2023-02-11T09:40:15;3.20;99.90
9125;DHT22;4597;48.730;9.114;2023-02-11T09:42:52;3.40;99.90
9125;DHT22;4597;48.730;9.114;2023-02-11T09:45:24;3.60;99.90
9125;DHT22;4597;48.730;9.114;2023-02-11T09:48:01;3.80;99.90
9125;DHT22;4597;48.730;9.114;2023-02-11T09:50:33;4.00;99.90
9125;DHT22;4597;48.730;9.114;2023-02-11T09:53:02;4.00;99.90
9125;DHT22;4597;48.730;9.114;2023-02-11T09:55:34;4.10;99.90
9125;DHT22;4597;48.730;9.114;2023-02-11T09:58:10;4.10;99.90
9125;DHT22;4597;48.730;9.114;2023-02-11T10:00:43;4.10;99.90
9125;DHT22;4597;48.730;9.114;2023-02-11T10:03:18;4.20;99.90
9125;DHT22;4597;48.730;9.114;2023-02-11T10:06:22;4.30;99.90
9125;DHT22;4597;48.730;9.114;2023-02-11T10:12:00;4.60;99.90
9125;DHT22;4597;48.730;9.114;2023-02-11T10:14:46;4.70;99.90
9125;DHT22;4597;48.730;9.114;2023-02-11T10:17:31;4.80;99.90
9125;DHT22;4597;48.730;9.114;2023-02-11T10:20:20;4.90;99.90
9125;DHT22;4597;48.730;9.114;2023-02-11T10:22:49;5.10;99.90
9125;DHT22;4597;48.730;9.114;2023-02-11T10:25:27;5.10;99.90
9125;DHT22;4597;48.730;9.114;2023-02-11T10:27:56;5.20;99.90
9125;DHT22;4597;48.730;9.114;2023-02-11T10:30:36;5.20;99.90
9125;DHT22;4597;48.730;9.114;2023-02-11T10:33:10;5.30;99.90
9125;DHT22;4597;48.730;9.114;2023-02-11T10:35:37;5.40;99.90
9125;DHT22;4597;48.730;9.114;2023-02-11T10:38:03;5.50;99.90
9125;DHT22;4597;48.730;9.114;2023-02-11T10:40:30;5.50;99.90
9125;DHT22;4597;48.730;9.114;2023-02-11T10:43:02;5.50;99.90
9125;DHT22;4597;48.730;9.114;2023-02-11T10:45:38;5.60;99.90
9125;DHT22;4597;48.730;9.114;2023-02-11T10:48:34;5.60;99.90
9125;DHT22;4597;48.730;9.114;2023-02-11T10:51:07;5.80;99.90
9125;DHT22;4597;48.730;9.114;2023-02-11T10:53:33;5.90;99.90
9125;DHT22;4597;48.730;9.114;2023-02-11T10:56:00;5.90;99.90
9125;DHT22;4597;48.730;9.114;2023-02-11T10:58:43;6.00;99.90
9125;DHT22;4597;48.730;9.114;2023-02-11T11:01:10;6.10;99.90
9125;DHT22;4597;48.730;9.114;2023-02-11T11:03:38;6.10;99.90
9125;DHT22;4597;48.730;9.114;2023-02-11T11:06:08;6.10;99.90
9125;DHT22;4597;48.730;9.114;2023-02-11T11:11:10;6.30;99.90
9125;DHT22;4597;48.730;9.114;2023-02-11T11:13:37;6.30;99.90
9125;DHT22;4597;48.730;9.114;2023-02-11T11:18:39;6.40;99.90
9125;DHT22;4597;48.730;9.114;2023-02-11T11:21:15;6.50;99.90
9125;DHT22;4597;48.730;9.114;2023-02-11T11:23:48;6.50;99.90
9125;DHT22;4597;48.730;9.114;2023-02-11T11:26:15;6.60;99.90
9125;DHT22;4597;48.730;9.114;2023-02-11T11:28:53;6.60;99.90
9125;DHT22;4597;48.730;9.114;2023-02-11T11:31:23;6.80;99.90
9125;DHT22;4597;48.730;9.114;2023-02-11T11:33:51;6.80;99.90
9125;DHT22;4597;48.730;9.114;2023-02-11T11:36:36;6.80;99.90
9125;DHT22;4597;48.730;9.114;2023-02-11T11:39:27;6.90;99.90
9125;DHT22;4597;48.730;9.114;2023-02-11T11:42:00;7.10;99.90
9125;DHT22;4597;48.730;9.114;2023-02-11T11:44:36;7.20;99.90
9125;DHT22;4597;48.730;9.114;2023-02-11T11:47:24;7.30;99.90
9125;DHT22;4597;48.730;9.114;2023-02-11T11:56:15;7.50;99.90
9125;DHT22;4597;48.730;9.114;2023-02-11T11:58:42;7.60;99.90
9125;DHT22;4597;48.730;9.114;2023-02-11T12:04:24;7.80;99.90
9125;DHT22;4597;48.730;9.114;2023-02-11T12:12:38;8.00;99.90
9125;DHT22;4597;48.730;9.114;2023-02-11T12:21:12;8.00;99.90
9125;DHT22;4597;48.730;9.114;2023-02-11T12:26:39;7.90;99.90
9125;DHT22;4597;48.730;9.114;2023-02-11T12:29:28;8.00;99.90
9125;DHT22;4597;48.730;9.114;2023-02-11T12:32:21;8.00;99.90
9125;DHT22;4597;48.730;9.114;2023-02-11T12:37:45;8.10;99.90
9125;DHT22;4597;48.730;9.114;2023-02-11T12:40:41;8.10;99.90
9125;DHT22;4597;48.730;9.114;2023-02-11T12:43:24;8.30;99.90
9125;DHT22;4597;48.730;9.114;2023-02-11T12:45:58;8.40;99.90
9125;DHT22;4597;48.730;9.114;2023-02-11T12:57:02;8.40;99.90
9125;DHT22;4597;48.730;9.114;2023-02-11T13:02:15;8.30;99.90
9125;DHT22;4597;48.730;9.114;2023-02-11T13:04:48;8.20;99.90
9125;DHT22;4597;48.730;9.114;2023-02-11T13:07:28;8.30;99.90
9125;DHT22;4597;48.730;9.114;2023-02-11T13:12:53;8.30;99.90
9125;DHT22;4597;48.730;9.114;2023-02-11T13:15:40;8.40;99.90
9125;DHT22;4597;48.730;9.114;2023-02-11T13:23:45;8.60;99.90
9125;DHT22;4597;48.730;9.114;2023-02-11T13:32:12;8.80;99.90
9125;DHT22;4597;48.730;9.114;2023-02-11T13:37:30;8.90;99.90
9125;DHT22;4597;48.730;9.114;2023-02-11T13:42:28;9.10;99.90
9125;DHT22;4597;48.730;9.114;2023-02-11T13:44:54;9.10;99.90
9125;DHT22;4597;48.730;9.114;2023-02-11T13:47:32;9.10;99.90
9125;DHT22;4597;48.730;9.114;2023-02-11T13:49:59;9.20;99.90
9125;DHT22;4597;48.730;9.114;2023-02-11T13:52:29;9.20;99.90
9125;DHT22;4597;48.730;9.114;2023-02-11T13:54:58;9.20;99.90
9125;DHT22;4597;48.730;9.114;2023-02-11T13:57:31;9.30;99.90
9125;DHT22;4597;48.730;9.114;2023-02-11T14:00:00;9.20;99.90
9125;DHT22;4597;48.730;9.114;2023-02-11T14:02:36;9.30;99.90
9125;DHT22;4597;48.730;9.114;2023-02-11T14:05:27;9.50;99.90
9125;DHT22;4597;48.730;9.114;2023-02-11T14:08:15;9.40;99.90
9125;DHT22;4597;48.730;9.114;2023-02-11T14:16:22;9.90;99.90
9125;DHT22;4597;48.730;9.114;2023-02-11T14:23:53;10.50;98.60
9125;DHT22;4597;48.730;9.114;2023-02-11T14:29:04;10.80;96.90
9125;DHT22;4597;48.730;9.114;2023-02-11T14:40:14;10.80;94.60
9125;DHT22;4597;48.730;9.114;2023-02-11T14:42:42;10.70;94.80
9125;DHT22;4597;48.730;9.114;2023-02-11T14:45:10;10.60;94.90
9125;DHT22;4597;48.730;9.114;2023-02-11T14:47:51;10.40;94.70
9125;DHT22;4597;48.730;9.114;2023-02-11T14:53:04;9.70;97.00
9125;DHT22;4597;48.730;9.114;2023-02-11T14:55:38;9.60;98.00
9125;DHT22;4597;48.730;9.114;2023-02-11T14:58:17;9.70;98.50
9125;DHT22;4597;48.730;9.114;2023-02-11T15:01:01;9.90;97.80
9125;DHT22;4597;48.730;9.114;2023-02-11T15:05:55;10.40;97.10
9125;DHT22;4597;48.730;9.114;2023-02-11T15:08:21;10.80;95.30
9125;DHT22;4597;48.730;9.114;2023-02-11T15:10:47;10.60;95.40
9125;DHT22;4597;48.730;9.114;2023-02-11T15:13:19;10.90;95.20
9125;DHT22;4597;48.730;9.114;2023-02-11T15:15:46;10.80;94.70
9125;DHT22;4597;48.730;9.114;2023-02-11T15:18:20;11.20;93.60
9125;DHT22;4597;48.730;9.114;2023-02-11T15:20:48;11.30;92.20
9125;DHT22;4597;48.730;9.114;2023-02-11T15:23:23;11.50;91.40
9125;DHT22;4597;48.730;9.114;2023-02-11T15:25:49;11.70;90.20
9125;DHT22;4597;48.730;9.114;2023-02-11T15:30:56;11.40;89.40
9125;DHT22;4597;48.730;9.114;2023-02-11T15:33:22;11.20;90.30
9125;DHT22;4597;48.730;9.114;2023-02-11T15:35:49;10.80;90.60
9125;DHT22;4597;48.730;9.114;2023-02-11T15:38:16;10.40;91.90
9125;DHT22;4597;48.730;9.114;2023-02-11T15:40:52;10.10;93.00
9125;DHT22;4597;48.730;9.114;2023-02-11T15:43:18;9.90;94.70
9125;DHT22;4597;48.730;9.114;2023-02-11T15:48:18;9.60;95.90
9125;DHT22;4597;48.730;9.114;2023-02-11T15:50:51;9.50;96.60
9125;DHT22;4597;48.730;9.114;2023-02-11T15:53:24;9.30;97.50
9125;DHT22;4597;48.730;9.114;2023-02-11T15:55:57;9.20;98.50
9125;DHT22;4597;48.730;9.114;2023-02-11T15:58:25;9.10;98.90
9125;DHT22;4597;48.730;9.114;2023-02-11T16:00:52;8.90;99.80
9125;DHT22;4597;48.730;9.114;2023-02-11T16:03:26;8.80;99.90
9125;DHT22;4597;48.730;9.114;2023-02-11T16:06:14;8.60;99.90
9125;DHT22;4597;48.730;9.114;2023-02-11T16:08:39;8.50;99.90
9125;DHT22;4597;48.730;9.114;2023-02-11T16:11:27;8.40;99.90
9125;DHT22;4597;48.730;9.114;2023-02-11T16:13:54;8.50;99.90
9125;DHT22;4597;48.730;9.114;2023-02-11T16:16:23;8.40;99.90
9125;DHT22;4597;48.730;9.114;2023-02-11T16:18:51;8.40;99.90
9125;DHT22;4597;48.730;9.114;2023-02-11T16:21:18;8.30;99.90
9125;DHT22;4597;48.730;9.114;2023-02-11T16:23:52;8.20;99.90
9125;DHT22;4597;48.730;9.114;2023-02-11T16:29:01;8.10;99.90
9125;DHT22;4597;48.730;9.114;2023-02-11T16:31:44;8.10;99.90
9125;DHT22;4597;48.730;9.114;2023-02-11T16:34:13;8.00;99.90
9125;DHT22;4597;48.730;9.114;2023-02-11T16:36:39;7.90;99.90
9125;DHT22;4597;48.730;9.114;2023-02-11T16:39:04;7.90;99.90
9125;DHT22;4597;48.730;9.114;2023-02-11T16:41:30;7.90;99.90
9125;DHT22;4597;48.730;9.114;2023-02-11T16:43:56;7.90;99.90
9125;DHT22;4597;48.730;9.114;2023-02-11T16:46:23;7.90;99.90
9125;DHT22;4597;48.730;9.114;2023-02-11T16:48:49;7.80;99.90
9125;DHT22;4597;48.730;9.114;2023-02-11T16:51:14;7.80;99.90
9125;DHT22;4597;48.730;9.114;2023-02-11T16:53:40;7.80;99.90
9125;DHT22;4597;48.730;9.114;2023-02-11T16:56:06;7.70;99.90
9125;DHT22;4597;48.730;9.114;2023-02-11T16:58:34;7.70;99.90
9125;DHT22;4597;48.730;9.114;2023-02-11T17:01:00;7.80;99.90
9125;DHT22;4597;48.730;9.114;2023-02-11T17:03:26;7.80;99.90
9125;DHT22;4597;48.730;9.114;2023-02-11T17:05:53;7.90;99.90
9125;DHT22;4597;48.730;9.114;2023-02-11T17:08:18;7.70;99.90
9125;DHT22;4597;48.730;9.114;2023-02-11T17:10:44;7.60;99.90
9125;DHT22;4597;48.730;9.114;2023-02-11T17:13:09;7.70;99.90
9125;DHT22;4597;48.730;9.114;2023-02-11T17:15:35;7.60;99.90
9125;DHT22;4597;48.730;9.114;2023-02-11T17:18:01;7.70;99.90
9125;DHT22;4597;48.730;9.114;2023-02-11T17:20:27;7.70;99.90
9125;DHT22;4597;48.730;9.114;2023-02-11T17:22:52;7.70;99.90
9125;DHT22;4597;48.730;9.114;2023-02-11T17:25:18;7.70;99.90
9125;DHT22;4597;48.730;9.114;2023-02-11T17:27:43;7.70;99.90
9125;DHT22;4597;48.730;9.114;2023-02-11T17:30:13;7.60;99.90
9125;DHT22;4597;48.730;9.114;2023-02-11T17:32:38;7.60;99.90
9125;DHT22;4597;48.730;9.114;2023-02-11T17:35:04;7.60;99.90
9125;DHT22;4597;48.730;9.114;2023-02-11T17:37:32;7.60;99.90
9125;DHT22;4597;48.730;9.114;2023-02-11T17:39:57;7.60;99.90
9125;DHT22;4597;48.730;9.114;2023-02-11T17:42:23;7.60;99.90
9125;DHT22;4597;48.730;9.114;2023-02-11T17:44:48;7.60;99.90
9125;DHT22;4597;48.730;9.114;2023-02-11T17:47:14;7.60;99.90
9125;DHT22;4597;48.730;9.114;2023-02-11T17:49:40;7.60;99.90
9125;DHT22;4597;48.730;9.114;2023-02-11T17:52:06;7.60;99.90
9125;DHT22;4597;48.730;9.114;2023-02-11T17:54:31;7.50;99.90
9125;DHT22;4597;48.730;9.114;2023-02-11T17:56:57;7.60;99.90
9125;DHT22;4597;48.730;9.114;2023-02-11T17:59:22;7.50;99.90
9125;DHT22;4597;48.730;9.114;2023-02-11T18:01:49;7.50;99.90
9125;DHT22;4597;48.730;9.114;2023-02-11T18:04:16;7.50;99.90
9125;DHT22;4597;48.730;9.114;2023-02-11T18:06:42;7.40;99.90
9125;DHT22;4597;48.730;9.114;2023-02-11T18:09:08;7.40;99.90
9125;DHT22;4597;48.730;9.114;2023-02-11T18:11:35;7.40;99.90
9125;DHT22;4597;48.730;9.114;2023-02-11T18:14:02;7.30;99.90
9125;DHT22;4597;48.730;9.114;2023-02-11T18:16:29;7.30;99.90
9125;DHT22;4597;48.730;9.114;2023-02-11T18:18:56;7.40;99.90
9125;DHT22;4597;48.730;9.114;2023-02-11T18:21:22;7.40;99.90
9125;DHT22;4597;48.730;9.114;2023-02-11T18:23:48;7.40;99.90
9125;DHT22;4597;48.730;9.114;2023-02-11T18:26:16;7.40;99.90
9125;DHT22;4597;48.730;9.114;2023-02-11T18:28:42;7.30;99.90
9125;DHT22;4597;48.730;9.114;2023-02-11T18:31:08;7.30;99.90